Terminal Aerodrome Forecast
Issued by NWS

Home | Current Version | Previous Version | Text Only | Print | Product List | Glossary On
Versions: 1 2 3 4 5 6 7 8 9 10 11 12 13 14 15 16
000
FTUS43 KABR 291122
TAFATY
TAF
KATY 291122Z 2912/3012 31010KT P6SM FEW070
     FM291500 31016KT P6SM BKN025 BKN070
     FM291800 31018G25KT P6SM VCSH OVC035
     FM292200 31019G27KT P6SM BKN060
     FM300200 31013KT P6SM BKN090
     FM300500 30009KT P6SM SKC=

USA.gov is the U.S. government's official web portal to all federal, state and local government web resources and services.